Time;durP1;ratioP1;P1;durP2;ratioP2;P2;SDS_P1;SDS_P2;PMS_P1;PMS_P2;Temp;Humidity;BMP_temperature;BMP_pressure;BME280_temperature;BME280_humidity;BME280_pressure;Samples;Min_cycle;Max_cycle;Signal;HPM_P1;HPM_P2
2022/01/05 00:02:05;;;;;;;7.88;1.58;;;4.30;91.40;;;;;;6228266;22;20595;-78
2022/01/05 00:04:35;;;;;;;5.22;1.83;;;4.20;91.40;;;;;;6203924;22;20016;-79
2022/01/05 00:07:02;;;;;;;6.63;2.42;;;4.30;91.40;;;;;;6206154;22;20098;-79
2022/01/05 00:09:28;;;;;;;12.50;2.63;;;4.20;91.40;;;;;;6179690;22;20406;-79
2022/01/05 00:11:53;;;;;;;9.07;1.83;;;4.20;91.40;;;;;;6205792;22;20019;-80
2022/01/05 00:14:19;;;;;;;9.70;2.05;;;4.30;91.40;;;;;;6179057;22;20031;-79
2022/01/05 00:16:45;;;;;;;8.00;2.42;;;4.20;91.30;;;;;;6204872;22;20023;-78
2022/01/05 00:19:13;;;;;;;10.60;2.47;;;4.20;91.40;;;;;;6204152;22;20442;-80
2022/01/05 00:21:40;;;;;;;12.82;1.90;;;4.20;91.50;;;;;;6205761;22;20023;-79
2022/01/05 00:24:06;;;;;;;12.93;2.83;;;4.20;91.50;;;;;;6205348;22;20024;-79
2022/01/05 00:26:32;;;;;;;7.80;2.25;;;4.20;91.60;;;;;;6181516;22;20397;-80
2022/01/05 00:28:58;;;;;;;8.70;2.05;;;4.20;91.70;;;;;;6205471;22;20094;-80
2022/01/05 00:31:24;;;;;;;8.02;1.50;;;4.20;91.70;;;;;;6205219;22;20016;-79
2022/01/05 00:33:50;;;;;;;5.53;1.63;;;4.20;91.70;;;;;;6180653;22;20051;-81
2022/01/05 00:36:17;;;;;;;7.07;1.80;;;4.10;91.70;;;;;;6204953;22;20094;-79
2022/01/05 00:38:42;;;;;;;8.48;1.92;;;4.20;91.70;;;;;;6205820;22;20026;-80
2022/01/05 00:41:08;;;;;;;9.75;2.33;;;4.20;91.70;;;;;;6204370;22;20019;-80
2022/01/05 00:43:34;;;;;;;5.18;1.33;;;4.20;91.70;;;;;;6205830;22;20019;-79
2022/01/05 00:45:59;;;;;;;8.45;2.13;;;4.10;91.60;;;;;;6233739;22;20039;-79
2022/01/05 00:48:25;;;;;;;7.30;1.98;;;4.10;91.60;;;;;;6209173;22;20063;-79
2022/01/05 00:50:51;;;;;;;7.35;1.63;;;4.10;91.70;;;;;;6213567;22;20012;-79
2022/01/05 00:53:17;;;;;;;8.70;2.42;;;4.10;91.70;;;;;;6247185;22;20024;-80
2022/01/05 00:55:42;;;;;;;7.55;1.52;;;4.10;91.70;;;;;;6194900;22;20019;-80
2022/01/05 00:58:08;;;;;;;6.65;1.80;;;4.10;91.70;;;;;;6216649;22;20020;-79
2022/01/05 01:00:34;;;;;;;6.43;1.58;;;4.00;91.70;;;;;;6207515;22;20018;-79
2022/01/05 01:02:59;;;;;;;8.52;1.85;;;4.00;91.70;;;;;;6208308;22;20067;-79
2022/01/05 01:05:25;;;;;;;9.98;2.33;;;4.00;91.60;;;;;;6206617;22;20016;-78
2022/01/05 01:07:51;;;;;;;10.63;2.17;;;4.00;91.60;;;;;;6212666;22;20019;-79
2022/01/05 01:10:17;;;;;;;5.35;1.30;;;4.00;91.60;;;;;;6187246;22;20022;-80
2022/01/05 01:12:42;;;;;;;6.63;1.55;;;4.00;91.60;;;;;;6203597;22;20047;-79
2022/01/05 01:15:09;;;;;;;8.00;2.13;;;4.00;91.60;;;;;;6227940;22;20086;-79
2022/01/05 01:17:37;;;;;;;6.75;1.92;;;3.90;91.60;;;;;;6203438;22;20035;-78
2022/01/05 01:20:04;;;;;;;9.45;1.92;;;3.90;91.60;;;;;;6202731;22;20020;-79
2022/01/05 01:22:31;;;;;;;5.68;1.60;;;3.90;91.60;;;;;;6228919;22;20051;-79
2022/01/05 01:24:57;;;;;;;6.70;1.80;;;3.90;91.60;;;;;;6203598;22;20078;-78
2022/01/05 01:27:22;;;;;;;8.25;1.65;;;3.90;91.60;;;;;;6253221;22;20063;-79
2022/01/05 01:29:48;;;;;;;8.00;1.92;;;3.90;91.60;;;;;;6202782;22;20012;-81
2022/01/05 01:32:14;;;;;;;7.38;1.75;;;3.80;91.60;;;;;;6178362;22;20090;-80
2022/01/05 01:34:45;;;;;;;6.88;1.60;;;3.80;91.60;;;;;;6204115;22;20043;-81
2022/01/05 01:37:10;;;;;;;11.27;2.47;;;3.80;91.60;;;;;;6203446;22;20024;-80
2022/01/05 01:39:36;;;;;;;9.05;2.15;;;3.80;91.60;;;;;;6179228;22;20030;-81
2022/01/05 01:42:02;;;;;;;9.23;2.10;;;3.80;91.70;;;;;;6178930;22;20067;-82
2022/01/05 01:44:30;;;;;;;8.25;2.30;;;3.80;91.70;;;;;;6203867;22;20449;-80
2022/01/05 01:46:56;;;;;;;9.77;1.85;;;3.80;91.70;;;;;;6204547;22;20389;-80
2022/01/05 01:49:22;;;;;;;8.80;2.10;;;3.80;91.70;;;;;;6228197;22;20008;-80
2022/01/05 01:51:50;;;;;;;7.97;2.55;;;3.80;91.70;;;;;;6203112;22;20027;-81
2022/01/05 01:54:16;;;;;;;11.48;2.20;;;3.80;91.70;;;;;;6228168;22;20349;-80
2022/01/05 01:56:41;;;;;;;10.00;2.47;;;3.80;91.70;;;;;;6179063;22;20015;-80
2022/01/05 01:59:07;;;;;;;8.35;2.35;;;3.80;91.70;;;;;;6202333;22;20023;-81
2022/01/05 02:01:35;;;;;;;9.20;1.77;;;3.80;91.70;;;;;;6179061;22;20033;-80
2022/01/05 02:04:01;;;;;;;7.32;1.73;;;3.80;91.70;;;;;;6227932;22;20077;-80
2022/01/05 02:06:26;;;;;;;10.95;1.90;;;3.70;91.70;;;;;;6202941;22;20082;-80
2022/01/05 02:08:52;;;;;;;8.48;2.38;;;3.80;91.70;;;;;;6228496;22;20015;-81
2022/01/05 02:11:26;;;;;;;8.35;2.22;;;3.70;91.70;;;;;;6178414;22;20011;-80
2022/01/05 02:13:52;;;;;;;6.57;2.08;;;3.70;91.70;;;;;;6229822;22;20073;-76
2022/01/05 02:16:20;;;;;;;13.82;2.30;;;3.80;91.70;;;;;;6200153;22;20114;-77
2022/01/05 02:19:00;;;;;;;14.13;2.35;;;3.70;91.70;;;;;;6225743;22;20371;-75
2022/01/05 02:21:27;;;;;;;9.35;2.42;;;3.70;91.70;;;;;;6203458;22;20027;-74
2022/01/05 02:23:53;;;;;;;9.10;1.98;;;3.70;91.80;;;;;;6199988;22;20079;-74
2022/01/05 02:26:19;;;;;;;9.32;2.00;;;3.70;91.80;;;;;;6200682;22;20058;-77
2022/01/05 02:28:46;;;;;;;11.35;2.30;;;3.70;91.80;;;;;;6250267;22;20016;-77
2022/01/05 02:31:11;;;;;;;11.90;1.85;;;3.70;91.80;;;;;;6224958;22;20031;-78
2022/01/05 02:33:38;;;;;;;12.45;2.50;;;3.60;91.80;;;;;;6277745;22;20015;-77
2022/01/05 02:36:05;;;;;;;13.25;2.70;;;3.70;91.80;;;;;;6200392;22;20020;-77
2022/01/05 02:38:30;;;;;;;8.30;1.92;;;3.60;91.80;;;;;;6250742;22;20076;-74
2022/01/05 02:40:56;;;;;;;8.35;2.10;;;3.60;91.80;;;;;;6199919;22;20488;-77
2022/01/05 02:43:22;;;;;;;7.80;2.30;;;3.60;91.80;;;;;;6199540;22;20027;-75
2022/01/05 02:45:48;;;;;;;7.85;1.67;;;3.60;91.80;;;;;;6225816;22;20012;-75
2022/01/05 02:48:13;;;;;;;10.57;2.13;;;3.60;91.80;;;;;;6225381;22;20011;-83
2022/01/05 02:50:39;;;;;;;10.60;1.95;;;3.60;91.80;;;;;;6175389;22;20016;-75
2022/01/05 02:53:05;;;;;;;12.63;2.88;;;3.60;91.70;;;;;;6200210;22;20055;-74
2022/01/05 02:55:30;;;;;;;11.63;3.00;;;3.60;91.70;;;;;;6225236;22;20026;-75
2022/01/05 02:57:56;;;;;;;10.43;2.75;;;3.60;91.70;;;;;;6249697;22;20042;-74
2022/01/05 03:00:22;;;;;;;10.85;2.85;;;3.60;91.70;;;;;;6224354;22;20016;-75
2022/01/05 03:02:47;;;;;;;11.75;3.17;;;3.60;91.70;;;;;;6199806;22;20430;-74
2022/01/05 03:05:13;;;;;;;8.60;2.25;;;3.60;91.70;;;;;;6200312;22;20442;-74
2022/01/05 03:07:39;;;;;;;10.90;2.30;;;3.60;91.70;;;;;;6249998;22;20012;-74
2022/01/05 03:10:07;;;;;;;11.63;2.13;;;3.50;91.60;;;;;;6277199;22;20012;-73
2022/01/05 03:12:32;;;;;;;15.95;3.10;;;3.60;91.70;;;;;;6199887;22;20019;-74
2022/01/05 03:14:58;;;;;;;9.43;3.28;;;3.50;91.60;;;;;;6277125;22;20089;-74
2022/01/05 03:17:24;;;;;;;10.23;2.30;;;3.50;91.70;;;;;;6249570;22;20077;-75
2022/01/05 03:19:49;;;;;;;11.30;2.40;;;3.50;91.70;;;;;;6224553;22;20016;-75
2022/01/05 03:22:15;;;;;;;9.52;2.58;;;3.50;91.70;;;;;;6224487;22;20024;-75
2022/01/05 03:24:41;;;;;;;11.73;2.10;;;3.50;91.70;;;;;;6199657;22;20015;-75
2022/01/05 03:27:06;;;;;;;10.85;3.17;;;3.50;91.70;;;;;;6201349;22;20016;-74
2022/01/05 03:29:32;;;;;;;11.95;2.25;;;3.50;91.70;;;;;;6225656;22;20381;-75
2022/01/05 03:31:58;;;;;;;8.85;2.20;;;3.50;91.70;;;;;;6201227;22;20034;-75
2022/01/05 03:34:24;;;;;;;17.52;3.47;;;3.50;91.70;;;;;;6225678;22;20016;-76
2022/01/05 03:36:49;;;;;;;7.95;2.08;;;3.50;91.60;;;;;;6250006;22;20023;-76
2022/01/05 03:39:15;;;;;;;11.13;3.30;;;3.50;91.60;;;;;;6226290;22;20019;-74
2022/01/05 03:41:41;;;;;;;17.17;3.08;;;3.50;91.60;;;;;;6225692;22;20017;-75
2022/01/05 03:44:07;;;;;;;12.55;2.88;;;3.60;91.60;;;;;;6200740;22;20137;-75
2022/01/05 03:46:32;;;;;;;9.52;2.70;;;3.60;91.70;;;;;;6200623;22;20015;-75
2022/01/05 03:48:59;;;;;;;13.82;2.88;;;3.50;91.60;;;;;;6251726;22;20015;-75
2022/01/05 03:51:25;;;;;;;13.70;2.88;;;3.50;91.60;;;;;;6226429;22;20462;-76
2022/01/05 03:53:51;;;;;;;10.45;2.35;;;3.50;92.00;;;;;;6252528;22;20061;-76
2022/01/05 03:56:16;;;;;;;12.35;2.92;;;3.60;91.70;;;;;;6201116;22;20023;-74
2022/01/05 03:58:44;;;;;;;13.27;3.25;;;3.50;91.70;;;;;;6225432;22;20044;-73
2022/01/05 04:01:09;;;;;;;10.02;2.67;;;3.60;91.70;;;;;;6252184;22;20395;-74
2022/01/05 04:03:35;;;;;;;14.55;3.45;;;3.50;91.70;;;;;;6226005;22;20051;-74
2022/01/05 04:06:01;;;;;;;13.85;2.85;;;3.50;91.70;;;;;;6278806;22;20027;-74
2022/01/05 04:08:26;;;;;;;14.50;2.78;;;3.50;91.70;;;;;;6225628;22;20418;-81
2022/01/05 04:10:52;;;;;;;14.80;3.13;;;3.50;91.80;;;;;;6277788;22;20058;-77
2022/01/05 04:13:18;;;;;;;12.52;2.92;;;3.50;91.80;;;;;;6251189;22;20020;-75
2022/01/05 04:15:44;;;;;;;11.13;3.00;;;3.50;91.80;;;;;;6226614;22;20440;-74
2022/01/05 04:18:09;;;;;;;10.27;2.60;;;3.50;91.80;;;;;;6278624;22;20019;-74
2022/01/05 04:20:35;;;;;;;9.15;2.78;;;3.50;91.80;;;;;;6200429;22;20398;-77
2022/01/05 04:23:01;;;;;;;12.13;3.70;;;3.50;91.90;;;;;;6250849;22;20019;-74
2022/01/05 04:25:26;;;;;;;16.02;3.08;;;3.50;91.90;;;;;;6225795;22;20094;-74
2022/01/05 04:27:52;;;;;;;9.02;2.75;;;3.50;91.90;;;;;;6250835;22;20012;-76
2022/01/05 04:30:18;;;;;;;9.38;3.78;;;3.50;91.90;;;;;;6226020;22;20018;-74
2022/01/05 04:32:43;;;;;;;12.10;2.60;;;3.60;91.90;;;;;;6250906;22;20023;-75
2022/01/05 04:35:12;;;;;;;10.80;2.70;;;3.60;91.90;;;;;;6226085;22;20441;-74
2022/01/05 04:37:38;;;;;;;15.23;3.30;;;3.60;92.00;;;;;;6228035;22;20024;-75
2022/01/05 04:40:04;;;;;;;13.48;3.10;;;3.60;91.90;;;;;;6279094;22;20016;-74
2022/01/05 04:42:30;;;;;;;13.32;3.03;;;3.60;92.30;;;;;;6251606;22;20020;-81
2022/01/05 04:44:56;;;;;;;11.18;3.17;;;3.60;92.00;;;;;;6226161;22;20023;-74
2022/01/05 04:47:24;;;;;;;12.63;3.05;;;3.60;92.00;;;;;;6200993;22;20016;-75
2022/01/05 04:49:50;;;;;;;16.33;3.03;;;3.60;92.00;;;;;;6201297;22;20027;-76
2022/01/05 04:52:16;;;;;;;11.93;2.50;;;3.70;92.10;;;;;;6226500;22;20023;-75
2022/01/05 04:54:41;;;;;;;10.65;3.25;;;3.70;92.10;;;;;;6200544;22;20055;-74
2022/01/05 04:57:07;;;;;;;12.68;4.00;;;3.70;92.10;;;;;;6226366;22;20081;-74
2022/01/05 04:59:33;;;;;;;16.17;4.18;;;3.70;92.10;;;;;;6250836;22;20438;-81
2022/01/05 05:01:59;;;;;;;11.70;2.95;;;3.60;92.10;;;;;;6201202;22;20046;-75
2022/01/05 05:04:25;;;;;;;13.38;3.05;;;3.70;92.20;;;;;;6226352;22;20050;-75
2022/01/05 05:06:51;;;;;;;15.27;2.88;;;3.70;92.20;;;;;;6251855;22;20082;-75
2022/01/05 05:09:17;;;;;;;15.43;3.83;;;3.70;92.20;;;;;;6251987;22;20107;-75
2022/01/05 05:11:43;;;;;;;10.77;2.83;;;3.70;92.20;;;;;;6225869;22;20019;-76
2022/01/05 05:14:09;;;;;;;16.40;3.08;;;3.70;92.20;;;;;;6175748;22;20020;-76
2022/01/05 05:16:35;;;;;;;13.55;3.05;;;3.70;92.20;;;;;;6200779;22;20065;-75
2022/01/05 05:19:00;;;;;;;17.15;3.33;;;3.70;92.20;;;;;;6251138;22;20008;-76
2022/01/05 05:21:26;;;;;;;12.80;3.05;;;3.80;92.30;;;;;;6251203;22;20031;-75
2022/01/05 05:23:52;;;;;;;17.27;3.05;;;3.80;92.30;;;;;;6278560;22;20086;-75
2022/01/05 05:26:17;;;;;;;16.23;3.03;;;3.80;92.30;;;;;;6225473;22;20077;-76
2022/01/05 05:28:43;;;;;;;12.95;2.60;;;3.90;92.40;;;;;;6200737;22;20020;-75
2022/01/05 05:31:09;;;;;;;10.43;2.58;;;3.90;92.40;;;;;;6200940;22;20016;-76
2022/01/05 05:33:34;;;;;;;11.90;2.70;;;3.90;92.70;;;;;;6225733;22;20047;-74
2022/01/05 05:36:01;;;;;;;15.25;3.33;;;3.90;92.30;;;;;;6225363;22;20015;-75
2022/01/05 05:38:28;;;;;;;9.98;2.58;;;4.00;92.40;;;;;;6225832;22;20103;-75
2022/01/05 05:40:54;;;;;;;16.88;2.95;;;4.10;92.40;;;;;;6226123;22;20018;-76
2022/01/05 05:43:19;;;;;;;9.98;3.20;;;4.10;92.30;;;;;;6200734;22;20102;-75
2022/01/05 05:45:45;;;;;;;12.77;2.15;;;4.10;92.30;;;;;;6226117;22;20020;-76
2022/01/05 05:48:11;;;;;;;11.38;3.47;;;4.10;92.20;;;;;;6250942;22;20095;-76
2022/01/05 05:50:36;;;;;;;16.20;2.88;;;4.20;92.20;;;;;;6200115;22;20094;-74
2022/01/05 05:53:02;;;;;;;13.15;2.97;;;4.20;92.20;;;;;;6224967;22;20043;-75
2022/01/05 05:55:28;;;;;;;15.43;3.10;;;4.20;92.20;;;;;;6224965;22;20075;-78
2022/01/05 05:57:53;;;;;;;15.10;3.28;;;4.30;92.20;;;;;;6225081;22;20091;-74
2022/01/05 06:00:19;;;;;;;11.73;3.25;;;4.40;92.10;;;;;;6225394;22;20019;-75
2022/01/05 06:02:45;;;;;;;10.95;2.90;;;4.30;92.10;;;;;;6200451;22;20051;-81
2022/01/05 06:05:10;;;;;;;12.15;2.92;;;4.40;92.10;;;;;;6199970;22;20346;-74
2022/01/05 06:07:36;;;;;;;9.02;3.08;;;4.40;92.00;;;;;;6199951;22;20458;-75
2022/01/05 06:10:02;;;;;;;12.20;2.20;;;4.40;92.00;;;;;;6199824;22;20026;-74
2022/01/05 06:12:28;;;;;;;12.90;3.05;;;4.50;92.10;;;;;;6201244;22;20073;-75
2022/01/05 06:14:53;;;;;;;10.70;2.47;;;4.50;92.10;;;;;;6250754;22;20020;-75
2022/01/05 06:17:20;;;;;;;14.35;3.50;;;4.50;92.10;;;;;;6200853;22;20099;-75
2022/01/05 06:19:46;;;;;;;10.52;2.42;;;4.50;92.20;;;;;;6277376;22;20346;-81
2022/01/05 06:22:11;;;;;;;9.57;2.45;;;4.50;92.30;;;;;;6251083;22;20090;-75
2022/01/05 06:24:39;;;;;;;12.70;2.72;;;4.50;92.30;;;;;;6225608;22;20406;-76
2022/01/05 06:27:05;;;;;;;16.55;2.92;;;4.60;92.40;;;;;;6200939;22;20069;-75
2022/01/05 06:29:31;;;;;;;13.95;3.65;;;4.50;92.40;;;;;;6226061;22;20069;-75
2022/01/05 06:31:57;;;;;;;13.45;3.05;;;4.60;92.50;;;;;;6225556;22;20011;-75
2022/01/05 06:34:22;;;;;;;14.55;3.13;;;4.60;92.60;;;;;;6226083;22;20023;-76
2022/01/05 06:36:48;;;;;;;13.80;3.13;;;4.60;92.60;;;;;;6250979;22;20027;-79
2022/01/05 06:39:15;;;;;;;16.05;2.95;;;4.60;92.80;;;;;;6225438;22;20020;-75
2022/01/05 06:41:41;;;;;;;12.68;2.70;;;4.70;92.80;;;;;;6226111;22;20394;-77
2022/01/05 06:44:08;;;;;;;10.77;2.53;;;4.70;92.90;;;;;;6225237;22;20026;-75
2022/01/05 06:46:34;;;;;;;15.35;3.15;;;4.70;93.00;;;;;;6225396;22;20026;-75
2022/01/05 06:48:59;;;;;;;13.05;3.70;;;4.70;93.10;;;;;;6199186;22;20012;-76
2022/01/05 06:51:25;;;;;;;9.85;2.20;;;4.70;93.10;;;;;;6249288;22;20016;-76
2022/01/05 06:53:51;;;;;;;12.75;3.03;;;4.70;93.10;;;;;;6198297;22;20065;-75
2022/01/05 06:56:16;;;;;;;13.88;2.67;;;4.70;93.30;;;;;;6223947;22;20051;-75
2022/01/05 06:58:42;;;;;;;12.93;2.30;;;4.70;93.40;;;;;;6276190;22;20329;-75
2022/01/05 07:01:07;;;;;;;15.02;2.60;;;4.60;93.40;;;;;;6225357;22;20022;-73
2022/01/05 07:03:33;;;;;;;11.52;2.50;;;4.70;93.50;;;;;;6250710;22;20051;-74
2022/01/05 07:05:59;;;;;;;9.38;1.83;;;4.70;93.50;;;;;;6276719;22;20019;-73
2022/01/05 07:08:24;;;;;;;15.23;2.53;;;4.60;93.60;;;;;;6250884;22;20015;-74
2022/01/05 07:10:50;;;;;;;8.27;2.10;;;4.60;93.60;;;;;;6199673;22;20043;-72
2022/01/05 07:13:16;;;;;;;7.78;1.95;;;4.60;93.70;;;;;;6250438;22;20156;-73
2022/01/05 07:15:41;;;;;;;8.07;1.70;;;4.60;93.70;;;;;;6224954;22;20078;-73
2022/01/05 07:18:07;;;;;;;9.32;2.00;;;4.50;93.80;;;;;;6250374;22;20015;-75
2022/01/05 07:20:32;;;;;;;9.43;2.70;;;4.50;93.90;;;;;;6200247;22;20018;-74
2022/01/05 07:22:58;;;;;;;10.18;2.58;;;4.60;94.00;;;;;;6225043;22;20042;-83
2022/01/05 07:25:24;;;;;;;13.27;2.30;;;4.60;94.00;;;;;;6250615;22;20062;-75
2022/01/05 07:27:49;;;;;;;10.98;2.33;;;4.60;94.00;;;;;;6225132;22;20104;-75
2022/01/05 07:30:15;;;;;;;12.98;2.28;;;4.50;94.10;;;;;;6225297;22;20011;-76
2022/01/05 07:32:41;;;;;;;11.90;2.72;;;4.60;94.20;;;;;;6252103;22;20016;-76
2022/01/05 07:35:07;;;;;;;14.68;2.78;;;4.60;94.20;;;;;;6252241;22;20016;-76
2022/01/05 07:37:33;;;;;;;9.23;2.13;;;4.60;94.30;;;;;;6201666;22;20027;-76
2022/01/05 07:39:58;;;;;;;14.13;2.53;;;4.60;94.30;;;;;;6227419;22;20011;-80
2022/01/05 07:42:24;;;;;;;8.57;2.15;;;4.60;94.40;;;;;;6226109;22;20342;-76
2022/01/05 07:44:51;;;;;;;13.98;2.33;;;4.60;94.50;;;;;;6227063;22;20023;-77
2022/01/05 07:47:16;;;;;;;8.32;2.42;;;4.70;94.50;;;;;;6226994;22;20024;-77
2022/01/05 07:49:42;;;;;;;9.10;1.70;;;4.70;94.60;;;;;;6175859;22;20449;-75
2022/01/05 07:52:10;;;;;;;13.25;2.83;;;4.90;94.90;;;;;;6201852;22;20016;-78
2022/01/05 07:54:36;;;;;;;18.50;4.25;;;5.10;95.30;;;;;;6179835;22;20059;-75
2022/01/05 07:57:02;;;;;;;15.02;3.03;;;5.10;94.80;;;;;;6201985;22;20020;-80
2022/01/05 07:59:28;;;;;;;10.68;2.80;;;5.10;94.80;;;;;;6176199;22;20019;-76
2022/01/05 08:01:53;;;;;;;16.20;2.78;;;5.10;94.80;;;;;;6253049;22;20062;-78
2022/01/05 08:04:19;;;;;;;13.57;2.92;;;5.10;94.80;;;;;;6176860;22;20065;-79
2022/01/05 08:06:47;;;;;;;9.68;2.38;;;5.10;95.00;;;;;;6202199;22;20073;-76
2022/01/05 08:09:13;;;;;;;12.82;3.72;;;5.10;94.90;;;;;;6228371;22;20023;-78
2022/01/05 08:11:39;;;;;;;15.30;3.17;;;5.10;95.00;;;;;;6228261;22;20012;-76
2022/01/05 08:14:04;;;;;;;9.90;2.95;;;5.10;95.00;;;;;;6254785;22;20019;-84
2022/01/05 08:16:30;;;;;;;11.30;2.58;;;5.20;95.10;;;;;;6203878;22;20389;-76
2022/01/05 08:18:56;;;;;;;15.65;3.22;;;5.20;95.20;;;;;;6255716;22;20011;-76
2022/01/05 08:21:22;;;;;;;14.93;3.10;;;5.20;95.10;;;;;;6254653;22;20525;-76
2022/01/05 08:23:48;;;;;;;16.75;2.78;;;5.20;95.10;;;;;;6203362;22;20065;-75
2022/01/05 08:26:14;;;;;;;13.88;2.58;;;5.30;95.10;;;;;;6226537;22;20022;-75
2022/01/05 08:28:39;;;;;;;12.25;2.60;;;5.30;95.20;;;;;;6227851;22;20007;-75
2022/01/05 08:31:05;;;;;;;15.13;2.38;;;5.20;95.20;;;;;;6252366;22;20015;-76
2022/01/05 08:33:31;;;;;;;12.93;3.88;;;5.30;95.30;;;;;;6251940;22;20026;-77
2022/01/05 08:35:57;;;;;;;17.17;3.13;;;5.30;95.30;;;;;;6227211;22;20023;-76
2022/01/05 08:38:22;;;;;;;12.60;2.95;;;5.30;95.40;;;;;;6227996;22;20020;-78
2022/01/05 08:40:49;;;;;;;13.75;2.65;;;5.30;95.40;;;;;;6227424;22;20094;-78
2022/01/05 08:43:15;;;;;;;15.80;3.20;;;5.30;95.50;;;;;;6226914;22;20026;-76
2022/01/05 08:45:43;;;;;;;14.65;2.58;;;5.30;95.40;;;;;;6226369;22;20378;-76
2022/01/05 08:48:10;;;;;;;12.57;3.00;;;5.40;95.50;;;;;;6226037;22;20023;-80
2022/01/05 08:50:36;;;;;;;14.50;3.42;;;5.40;95.50;;;;;;6199876;22;20015;-76
2022/01/05 08:53:02;;;;;;;19.23;3.67;;;5.40;95.50;;;;;;6251887;22;20019;-74
2022/01/05 08:55:30;;;;;;;13.10;3.67;;;5.40;95.50;;;;;;6199179;22;20020;-75
2022/01/05 08:57:58;;;;;;;8.07;2.25;;;5.40;95.50;;;;;;6250542;22;20326;-75
2022/01/05 09:00:24;;;;;;;10.35;1.95;;;5.40;95.50;;;;;;6247797;22;20019;-74
2022/01/05 09:02:50;;;;;;;6.40;1.50;;;5.40;95.50;;;;;;6249428;22;20090;-75
2022/01/05 09:05:16;;;;;;;11.68;1.90;;;5.50;95.50;;;;;;6250280;22;20016;-77
2022/01/05 09:07:42;;;;;;;7.47;1.45;;;5.50;95.50;;;;;;6224272;22;20024;-84
2022/01/05 09:10:08;;;;;;;11.38;2.38;;;5.50;95.60;;;;;;6223124;22;20041;-76
2022/01/05 09:12:34;;;;;;;8.27;2.13;;;5.50;95.60;;;;;;6250268;22;20012;-74
2022/01/05 09:14:59;;;;;;;12.43;2.60;;;5.60;95.60;;;;;;6200895;22;20034;-76
2022/01/05 09:17:26;;;;;;;12.88;3.35;;;5.60;95.60;;;;;;6199631;22;20016;-78
2022/01/05 09:19:51;;;;;;;15.00;3.35;;;5.70;95.70;;;;;;6224367;22;20080;-76
2022/01/05 09:22:18;;;;;;;21.75;3.33;;;5.70;95.70;;;;;;6250320;22;20480;-79
2022/01/05 09:24:43;;;;;;;18.15;2.92;;;5.70;95.70;;;;;;6250087;22;20342;-76
2022/01/05 09:27:09;;;;;;;13.43;3.08;;;5.80;95.70;;;;;;6250355;22;20016;-74
2022/01/05 09:29:35;;;;;;;14.77;2.40;;;5.80;95.70;;;;;;6249858;22;20023;-76
2022/01/05 09:32:03;;;;;;;11.95;2.35;;;5.90;95.70;;;;;;6250028;22;20016;-79
2022/01/05 09:34:30;;;;;;;10.80;2.50;;;5.90;95.70;;;;;;6250200;22;20051;-77
2022/01/05 09:37:01;;;;;;;12.85;3.42;;;6.00;95.70;;;;;;6248364;22;20464;-76
2022/01/05 09:42:10;;;;;;;10.15;2.17;;;6.00;95.60;;;;;;6249770;22;20027;-77
2022/01/05 09:44:38;;;;;;;6.53;1.83;;;6.00;95.60;;;;;;6276723;22;20019;-76
2022/01/05 09:47:29;;;;;;;12.95;2.85;;;6.10;95.60;;;;;;6175050;22;20020;-79
2022/01/05 09:50:27;;;;;;;12.38;2.83;;;6.10;95.60;;;;;;6226202;22;20448;-79
2022/01/05 09:52:53;;;;;;;15.20;3.20;;;6.20;95.60;;;;;;6118677;22;20027;-75
2022/01/05 09:55:18;;;;;;;14.00;3.08;;;6.20;95.50;;;;;;6249659;22;20024;-76
2022/01/05 09:57:45;;;;;;;11.63;2.42;;;6.20;95.50;;;;;;6199045;22;20022;-76
2022/01/05 10:00:12;;;;;;;12.75;2.85;;;6.30;95.80;;;;;;6249978;22;20252;-75
2022/01/05 10:02:39;;;;;;;14.00;2.83;;;6.30;95.50;;;;;;6249697;22;20016;-76
2022/01/05 10:05:11;;;;;;;13.60;2.75;;;6.40;95.50;;;;;;6224826;22;20338;-76
2022/01/05 10:07:37;;;;;;;10.15;2.67;;;6.40;95.40;;;;;;6224916;22;20051;-76
2022/01/05 10:10:03;;;;;;;11.88;3.03;;;6.40;95.40;;;;;;6250508;22;20047;-76
2022/01/05 10:12:29;;;;;;;12.02;2.88;;;6.40;95.30;;;;;;6202298;22;20022;-79
2022/01/05 10:14:56;;;;;;;13.85;4.35;;;6.50;95.30;;;;;;6228645;22;20023;-79
2022/01/05 10:17:30;;;;;;;15.07;3.65;;;6.50;95.30;;;;;;6204875;22;20016;-80
2022/01/05 10:20:01;;;;;;;14.68;3.15;;;6.50;95.20;;;;;;6203982;22;20107;-79
2022/01/05 10:22:41;;;;;;;19.05;3.25;;;6.50;95.20;;;;;;6203485;22;20077;-83
2022/01/05 10:25:07;;;;;;;12.95;3.08;;;6.50;95.20;;;;;;6254470;22;20027;-78
2022/01/05 10:27:33;;;;;;;15.52;3.20;;;6.50;95.20;;;;;;6254713;22;20341;-81
2022/01/05 10:30:08;;;;;;;13.50;3.20;;;6.50;95.10;;;;;;6255210;22;20055;-83
2022/01/05 10:32:34;;;;;;;13.13;3.08;;;6.50;95.10;;;;;;6254901;22;20016;-80
2022/01/05 10:35:13;;;;;;;17.30;2.90;;;6.60;95.10;;;;;;6205727;22;20020;-79
2022/01/05 10:37:44;;;;;;;14.35;3.35;;;6.60;95.10;;;;;;6205104;22;20027;-79
2022/01/05 10:40:20;;;;;;;17.58;3.72;;;6.70;95.10;;;;;;6231113;22;20016;-79
2022/01/05 10:42:46;;;;;;;13.18;3.47;;;6.70;95.10;;;;;;6232117;22;20015;-78
2022/01/05 10:45:17;;;;;;;15.57;3.10;;;6.80;95.00;;;;;;6230811;22;20134;-76
2022/01/05 10:47:43;;;;;;;17.38;3.00;;;6.80;95.00;;;;;;6279749;22;20023;-77
2022/01/05 10:50:18;;;;;;;10.98;2.17;;;6.80;94.90;;;;;;6256119;22;20618;-79
2022/01/05 10:52:53;;;;;;;15.82;3.28;;;6.90;95.00;;;;;;6229400;22;20091;-75
2022/01/05 10:55:19;;;;;;;11.13;2.50;;;6.90;94.90;;;;;;6256950;22;20016;-80
2022/01/05 10:58:15;;;;;;;15.27;2.53;;;6.90;94.80;;;;;;6205939;22;20028;-79
2022/01/05 11:00:52;;;;;;;15.43;3.17;;;6.90;94.70;;;;;;6201144;22;20028;-79
2022/01/05 11:03:30;;;;;;;13.68;2.70;;;6.90;94.70;;;;;;6184036;22;20430;-79
2022/01/05 11:06:02;;;;;;;12.80;2.88;;;6.90;94.80;;;;;;6231974;22;20074;-80
2022/01/05 11:08:29;;;;;;;18.00;2.67;;;7.00;94.70;;;;;;6256578;22;20078;-81
2022/01/05 11:10:54;;;;;;;15.20;2.97;;;7.10;94.70;;;;;;6231247;22;20038;-78
2022/01/05 11:13:20;;;;;;;12.57;2.35;;;7.20;94.60;;;;;;6257552;22;20365;-79
2022/01/05 11:15:46;;;;;;;11.52;2.83;;;7.30;94.40;;;;;;6206656;22;20095;-79
2022/01/05 11:18:17;;;;;;;17.20;3.17;;;7.40;94.30;;;;;;6231546;22;20015;-80
2022/01/05 11:20:55;;;;;;;17.60;4.63;;;7.50;94.30;;;;;;6207616;22;20420;-78
2022/01/05 11:23:25;;;;;;;16.38;3.90;;;7.70;94.10;;;;;;6234526;22;20011;-78
2022/01/05 11:25:51;;;;;;;12.32;3.55;;;8.10;93.70;;;;;;6181522;22;20026;-78
2022/01/05 11:28:18;;;;;;;11.70;3.60;;;8.60;93.20;;;;;;6206333;22;20141;-79
2022/01/05 11:30:44;;;;;;;18.45;3.60;;;8.90;92.50;;;;;;6230554;22;20278;-79
2022/01/05 11:33:10;;;;;;;16.55;3.05;;;9.20;92.00;;;;;;6206455;22;20392;-79
2022/01/05 11:35:36;;;;;;;15.38;3.30;;;9.60;91.40;;;;;;6231257;22;20016;-82
2022/01/05 11:38:02;;;;;;;14.75;3.17;;;9.80;90.80;;;;;;6256495;22;20047;-79
2022/01/05 11:40:29;;;;;;;12.02;2.83;;;10.10;90.50;;;;;;6206238;22;20019;-78
2022/01/05 11:43:03;;;;;;;15.85;3.78;;;10.40;90.10;;;;;;6206639;22;20089;-79
2022/01/05 11:45:37;;;;;;;20.35;4.13;;;10.50;89.70;;;;;;6230392;22;20392;-79
2022/01/05 11:48:16;;;;;;;12.05;3.08;;;10.50;89.60;;;;;;6206597;22;20090;-78
2022/01/05 11:50:58;;;;;;;10.90;2.45;;;10.70;89.50;;;;;;6230884;22;20027;-79
2022/01/05 11:53:38;;;;;;;10.75;2.63;;;10.90;89.10;;;;;;6207788;22;20019;-80
2022/01/05 11:56:12;;;;;;;11.65;2.17;;;11.10;87.90;;;;;;6231330;22;20445;-79
2022/01/05 11:59:01;;;;;;;16.90;3.13;;;11.40;87.30;;;;;;6206027;22;20327;-79
2022/01/05 12:01:32;;;;;;;9.15;2.17;;;11.10;86.20;;;;;;6231563;22;20023;-78
2022/01/05 12:03:58;;;;;;;10.52;2.70;;;10.90;87.80;;;;;;6180777;22;20027;-79
2022/01/05 12:06:29;;;;;;;12.07;2.83;;;10.60;88.70;;;;;;6231061;22;20073;-78
2022/01/05 12:08:56;;;;;;;14.55;2.90;;;10.60;89.00;;;;;;6231143;22;20015;-79
2022/01/05 12:11:34;;;;;;;10.95;2.25;;;10.90;88.70;;;;;;6256397;22;20015;-75
2022/01/05 12:14:04;;;;;;;13.52;3.53;;;10.90;88.10;;;;;;6205612;22;20028;-77
2022/01/05 12:16:51;;;;;;;13.18;3.30;;;11.00;88.00;;;;;;6182036;22;20019;-78
2022/01/05 12:19:17;;;;;;;11.48;3.75;;;11.00;87.90;;;;;;6260100;22;20075;-76
2022/01/05 12:21:44;;;;;;;15.57;4.13;;;10.80;87.90;;;;;;6230628;22;20016;-83
2022/01/05 12:24:11;;;;;;;13.75;2.95;;;10.60;88.40;;;;;;6231218;22;20019;-77
2022/01/05 12:26:36;;;;;;;16.35;3.58;;;10.80;88.40;;;;;;6256000;22;20020;-77
2022/01/05 12:29:02;;;;;;;10.90;3.20;;;11.00;88.10;;;;;;6205684;22;20020;-78
2022/01/05 12:31:56;;;;;;;19.00;4.97;;;11.20;87.50;;;;;;6205890;22;20030;-76
2022/01/05 12:34:54;;;;;;;8.18;2.40;;;11.40;86.20;;;;;;6256353;22;20095;-75
2022/01/05 12:37:39;;;;;;;15.77;3.33;;;11.60;85.60;;;;;;6230363;22;20020;-76
2022/01/05 12:40:35;;;;;;;11.48;2.38;;;12.00;84.60;;;;;;6254402;22;20445;-76
2022/01/05 12:43:09;;;;;;;10.95;2.60;;;12.20;83.60;;;;;;6196994;22;20012;-75
2022/01/05 12:45:47;;;;;;;12.05;4.05;;;12.40;83.60;;;;;;6255226;22;20016;-79
2022/01/05 12:48:39;;;;;;;11.07;2.22;;;12.70;81.90;;;;;;6256373;22;20047;-80
2022/01/05 12:51:14;;;;;;;6.00;1.77;;;12.80;80.80;;;;;;6254138;22;20018;-75
2022/01/05 12:53:52;;;;;;;11.20;2.20;;;12.70;81.90;;;;;;6254607;22;20015;-75